00:35
Airports
History
Links
Donate
Help keep this website running!
PayPal
Bitcoin
Information on this page is community maintained and may be outdated or inaccurate and is intended for reference only or PC simulator navigating.
Always use approved charts for navigating.
SDIP
Fazenda Centro de Voo a Vela Ipua
Fazenda Centro de Voo a Vela Ipua (SDIP)
Caçapava, São Paulo, Brazil
4
Lat/Lng:23° 2' 36" S / 45° 46' 32" W
-23.043333 / -45.775556
Elevation:1913'ft 583mMSL
ID / ICAO:SDIP
Runways:1
Longest:(08-26) 611.5m 2,006ft Grass
Distance To
Airport ID:
Nearby WeatherUpdated 07-25-17 00:00 GMT
Nearby weather at SBSJ, Sao Jose Dos Campos located 13.9 nautical miles from SDIP
Altimeter: 30.33
Visibility: 6.2 statute miles
Wind: 2 knots (030°)
Temp: 17°c 63°f
Humidity: 67.7%

METAR: SBSJ 250000Z 03002KT CAVOK 17/11 Q1027

(Powered by phpweather)
Runway 08 / 26
Dimensions:611.5 x 20.1m 2006' x 66'ft
Surface:Grass
Runway 08 [A]Runway 26 [B]
Heading:056°TH 236°TH
Lat:
Lng:
23° 2' 41.38"S
45° 46' 40.95"W
23° 2' 30.62"S
45° 46' 23.05"W
User Notes and Comments
Google Map
Nearby Airports
4 Fazenda Maristela 12.7 NM
SDMA ENE 60°
(C) Sao Jose Dos Campos 13.9 NM
SBSJ (WX) SSW 203°
(C) BASE DE AVIACAO DE TAUBATE 16.5 NM
SBTA E 89°
(U) FAZENDA SANTA HELENA 20.8 NM
SDZH ENE 59°
4 Monte Verde 20.9 NM
SNEJ NW 307°
4 Pindamonhangaba 22.9 NM
SDPD ENE 72°
(C) GUARATINGUETA 40.3 NM
SBGW (WX) ENE 64°
VFR Chart
Flight Planning at SkyVector.com